Rutland, VT (05701)

12:44 PM EDT on June 23, 2017 (GMT -0400)
Tom's north | | Change Station

Elev 636 ft 43.61 °N, 72.97 °W | Updated 39 seconds ago

Mostly Cloudy
Mostly Cloudy
85.5 °F
Feels Like 90 °F
N
0.0
Wind Variable Wind from SE
Gusts 0.7 mph

Today
High -- | Low -- °F
--% Chance of Precip.
Yesterday
High -- | Low -- °F
Precip. -- in
Pressure 29.74 in
Visibility 10.0 miles
Clouds Few 2600 ft
Mostly Cloudy 7500 ft
Mostly Cloudy 9000 ft
Heat Index 90 °F
Dew Point 70 °F
Humidity 61%
Rainfall 0.04 in
Snow Depth Not available.
5:11 AM 8:37 PM
Waning Crescent, 0% visible
METAR KRUT 231556Z AUTO 00000KT 10SM FEW026 BKN075 BKN090 23/22 A2971 RMK AO2 RAB39E55 SLP071 P0000 T02280217 $
Pressure 29.74 in
Visibility 10.0 miles
Clouds Few 2600 ft
Mostly Cloudy 7500 ft
Mostly Cloudy 9000 ft
Heat Index 90 °F
Dew Point 70 °F
Humidity 61%
Rainfall 0.04 in
Snow Depth Not available.
5:11 AM 8:37 PM
Waning Crescent, 0% visible
METAR KRUT 231556Z AUTO 00000KT 10SM FEW026 BKN075 BKN090 23/22 A2971 RMK AO2 RAB39E55 SLP071 P0000 T02280217 $

Get Severe Weather Alerts

Thanks for signing up!

Be on the lookout for a verification email in your inbox.

You'll start receiving the daily forecast at 6 AM.

×

10-Day Weather Forecast

Almanac

Astronomy

Jun. 23, 2017 Rise Set
Actual Time
Civil Twilight
Nautical Twilight
Astronomical Twilight
Moon
Length of Visible Light
Length of Day
Tomorrow will be .
, % of the Moon is Illuminated

Today's Extremes

State Highs State Lows

Community

WunderPhotos

Category 6

Welcome to Category 6. This is the collective home for Weather Underground's featured writeups by Dr. Jeff Masters (right), Bob Henson (left), Chris Burt, and other regular contributors.

Nearby

Air Quality

  Air Quality AQ Index Pollutant
Not available.

Snow Depth

Station Depth Elevation

Earthquake Activity

City Distance Mag. Time & Date
Minimum magnitude displayed is 2.5.

Coastal Water Temperatures

Place Temperature

Stations

Nearby Weather Stations

Station Location Temp. Windchill Dew Point Humidity Wind Precip. Elev Updated Type
                   

Watches & Warnings

There are currently no watches in effect.